Time;durP1;ratioP1;P1;durP2;ratioP2;P2;SDS_P1;SDS_P2;PMS_P1;PMS_P2;Temp;Humidity;BMP_temperature;BMP_pressure;BME280_temperature;BME280_humidity;BME280_pressure;Samples;Min_cycle;Max_cycle;Signal;HPM_P1;HPM_P2
2023/10/12 00:02:21;;;;;;;15.27;4.85;;;;;;;18.80;60.51;101141.31;5149885;27;20108;-64
2023/10/12 00:04:53;;;;;;;11.32;4.97;;;;;;;18.79;60.51;101145.94;5146322;27;20089;-64
2023/10/12 00:07:33;;;;;;;12.73;5.82;;;;;;;18.78;60.73;101138.03;5152016;27;20065;-64
2023/10/12 00:10:19;;;;;;;16.52;5.82;;;;;;;18.77;60.72;101142.66;5148786;27;20050;-64
2023/10/12 00:12:47;;;;;;;14.15;5.55;;;;;;;18.75;60.95;101155.72;5152763;27;20043;-65
2023/10/12 00:15:23;;;;;;;13.52;5.20;;;;;;;18.76;61.19;101153.81;5148667;27;20412;-65
2023/10/12 00:17:55;;;;;;;10.77;5.60;;;;;;;18.76;61.23;101162.00;5150862;27;20055;-65
2023/10/12 00:20:26;;;;;;;10.90;5.57;;;;;;;18.74;61.19;101153.28;5154919;27;20043;-65
2023/10/12 00:22:58;;;;;;;10.52;5.85;;;;;;;18.74;61.30;101162.25;5154968;27;20046;-65
2023/10/12 00:25:26;;;;;;;13.32;6.18;;;;;;;18.74;61.49;101166.88;5152885;27;20050;-65
2023/10/12 00:27:54;;;;;;;14.07;6.15;;;;;;;18.73;61.68;101173.41;5150174;27;20050;-65
2023/10/12 00:30:23;;;;;;;12.57;6.25;;;;;;;18.60;61.72;101152.94;5145061;27;20062;-65
2023/10/12 00:32:51;;;;;;;12.35;6.35;;;;;;;18.69;62.02;101166.88;5148661;27;20072;-65
2023/10/12 00:35:21;;;;;;;12.13;6.78;;;;;;;18.69;61.91;101164.97;5151762;27;20065;-67
2023/10/12 00:37:49;;;;;;;13.25;6.07;;;;;;;18.69;62.01;101186.75;5146904;27;20069;-64
2023/10/12 00:40:31;;;;;;;13.15;6.53;;;;;;;18.68;62.26;101196.00;5147860;27;20047;-64
2023/10/12 00:43:00;;;;;;;12.68;6.97;;;;;;;18.68;62.46;101195.19;5147217;27;20076;-64
2023/10/12 00:45:31;;;;;;;11.25;6.43;;;;;;;18.67;62.60;101202.53;5148995;27;20245;-64
2023/10/12 00:48:03;;;;;;;15.23;8.07;;;;;;;18.67;62.66;101216.16;5153566;27;20043;-64
2023/10/12 00:50:34;;;;;;;15.25;7.00;;;;;;;18.68;63.12;101222.41;5145829;27;20464;-64
2023/10/12 00:53:14;;;;;;;9.43;6.43;;;;;;;18.67;63.13;101223.50;5146469;27;20113;-63
2023/10/12 00:55:43;;;;;;;11.77;6.78;;;;;;;18.66;63.26;101216.41;5145608;27;20100;-64
2023/10/12 00:58:14;;;;;;;14.70;7.40;;;;;;;18.65;63.41;101212.88;5151080;27;20556;-64
2023/10/12 01:00:45;;;;;;;13.65;7.65;;;;;;;18.66;63.29;101219.94;5150694;27;20043;-65
2023/10/12 01:03:31;;;;;;;19.35;7.90;;;;;;;18.66;63.52;101216.41;5154232;27;20099;-64
2023/10/12 01:06:20;;;;;;;11.23;6.78;;;;;;;18.65;63.79;101209.31;5157282;27;20051;-63
2023/10/12 01:08:49;;;;;;;16.08;8.10;;;;;;;18.64;63.79;101207.69;5147361;27;20046;-63
2023/10/12 01:11:20;;;;;;;15.25;7.25;;;;;;;18.64;63.79;101213.13;5148457;27;20046;-63
2023/10/12 01:13:54;;;;;;;11.98;6.35;;;;;;;18.63;63.83;101220.47;5148974;27;20062;-64
2023/10/12 01:16:23;;;;;;;12.50;7.50;;;;;;;18.63;63.75;101219.66;5152348;27;20051;-64
2023/10/12 01:18:59;;;;;;;11.52;6.70;;;;;;;18.61;64.06;101217.22;5149722;27;20039;-64
2023/10/12 01:21:29;;;;;;;14.55;7.25;;;;;;;18.61;64.43;101219.94;5150181;27;20075;-63
2023/10/12 01:24:02;;;;;;;20.40;7.63;;;;;;;18.61;64.29;101233.53;5150169;27;20083;-64
2023/10/12 01:26:33;;;;;;;12.15;6.53;;;;;;;18.60;64.21;101220.97;5154796;27;20114;-64
2023/10/12 01:29:01;;;;;;;14.45;7.18;;;;;;;18.58;64.15;101204.09;5155495;27;20523;-63
2023/10/12 01:31:30;;;;;;;12.43;6.57;;;;;;;18.58;64.24;101201.38;5147486;27;20047;-63
2023/10/12 01:33:59;;;;;;;10.18;5.88;;;;;;;18.59;64.43;101194.03;5160331;27;20066;-63
2023/10/12 01:36:30;;;;;;;13.63;7.00;;;;;;;18.53;64.63;101194.00;5150622;27;20051;-63
2023/10/12 01:39:12;;;;;;;10.80;6.60;;;;;;;18.57;64.71;101207.09;5147835;27;20043;-63
2023/10/12 01:41:41;;;;;;;12.85;7.45;;;;;;;18.52;64.78;101195.09;5153744;27;20047;-63
2023/10/12 01:44:11;;;;;;;14.02;7.25;;;;;;;18.54;64.60;101197.53;5145702;27;20065;-64
2023/10/12 01:46:40;;;;;;;11.93;6.55;;;;;;;18.54;64.53;101201.09;5150425;27;20047;-63
2023/10/12 01:49:08;;;;;;;12.38;6.65;;;;;;;18.54;64.62;101190.19;5148807;27;20069;-64
2023/10/12 01:51:41;;;;;;;9.88;6.05;;;;;;;18.53;64.53;101185.03;5148235;27;20061;-64
2023/10/12 01:54:12;;;;;;;13.30;6.72;;;;;;;18.51;64.86;101192.63;5147028;27;20103;-64
2023/10/12 01:56:40;;;;;;;10.27;6.63;;;;;;;18.52;65.16;101202.44;5152160;27;20410;-64
2023/10/12 01:59:08;;;;;;;12.73;6.32;;;;;;;18.50;64.86;101205.44;5152524;27;20128;-64
2023/10/12 02:01:42;;;;;;;10.18;5.85;;;;;;;18.50;65.08;101199.16;5154731;27;20660;-64
2023/10/12 02:04:10;;;;;;;13.32;7.22;;;;;;;18.49;64.84;101194.81;5156509;27;20050;-64
2023/10/12 02:06:39;;;;;;;14.23;6.60;;;;;;;18.46;64.99;101188.00;5156338;27;20077;-64
2023/10/12 02:09:09;;;;;;;10.70;6.47;;;;;;;18.46;64.87;101195.34;5150828;27;20055;-64
2023/10/12 02:11:45;;;;;;;14.35;7.28;;;;;;;18.45;65.00;101196.41;5151700;27;20055;-64
2023/10/12 02:14:23;;;;;;;11.07;7.18;;;;;;;18.44;65.23;101186.63;5154490;27;20038;-63
2023/10/12 02:16:54;;;;;;;9.98;6.43;;;;;;;18.43;65.30;101187.69;5148925;27;20065;-64
2023/10/12 02:19:31;;;;;;;10.65;5.85;;;;;;;18.42;65.32;101195.03;5154210;27;20053;-64
2023/10/12 02:22:03;;;;;;;11.48;6.70;;;;;;;18.42;65.38;101195.03;5146418;27;20054;-64
2023/10/12 02:24:35;;;;;;;10.73;6.15;;;;;;;18.41;65.24;101193.41;5154415;27;20046;-64
2023/10/12 02:27:05;;;;;;;14.27;6.40;;;;;;;18.40;65.64;101180.88;5148176;27;20069;-65
2023/10/12 02:29:36;;;;;;;10.70;6.28;;;;;;;18.37;65.35;101156.94;5152079;27;20499;-65
2023/10/12 02:32:18;;;;;;;11.68;6.55;;;;;;;18.38;65.37;101157.75;5161267;27;20100;-65
2023/10/12 02:34:46;;;;;;;17.63;7.05;;;;;;;18.36;65.71;101147.13;5147834;27;20066;-65
2023/10/12 02:37:18;;;;;;;14.50;6.63;;;;;;;18.35;65.61;101180.88;5145972;27;20042;-65
2023/10/12 02:39:48;;;;;;;14.98;7.80;;;;;;;18.35;65.60;101185.50;5150390;27;20113;-65
2023/10/12 02:42:18;;;;;;;12.55;6.80;;;;;;;18.34;65.67;101170.25;5147906;27;20495;-64
2023/10/12 02:45:08;;;;;;;9.23;6.32;;;;;;;18.34;65.75;101159.34;5152528;27;20071;-65
2023/10/12 02:47:40;;;;;;;11.45;6.20;;;;;;;18.34;65.49;101143.03;5146302;27;20055;-64
2023/10/12 02:50:21;;;;;;;10.27;5.90;;;;;;;18.32;65.47;101128.88;5150102;27;20039;-65
2023/10/12 02:52:51;;;;;;;10.95;5.85;;;;;;;18.30;65.81;101131.03;5153366;27;20105;-64
2023/10/12 02:55:26;;;;;;;15.95;6.32;;;;;;;18.32;65.63;101147.91;5157811;27;20057;-64
2023/10/12 02:57:59;;;;;;;11.63;5.82;;;;;;;18.32;65.75;101156.09;5149327;27;20034;-64
2023/10/12 03:00:35;;;;;;;11.25;6.57;;;;;;;18.28;65.79;101149.53;5145831;27;20047;-64
2023/10/12 03:03:21;;;;;;;12.77;6.10;;;;;;;18.31;65.82;101151.72;5149028;27;20123;-64
2023/10/12 03:05:51;;;;;;;13.50;5.88;;;;;;;18.30;65.94;101156.34;5149561;27;20073;-64
2023/10/12 03:08:21;;;;;;;9.27;5.72;;;;;;;18.29;65.71;101154.72;5149312;27;20034;-64
2023/10/12 03:11:11;;;;;;;9.32;5.68;;;;;;;18.29;65.88;101167.50;5153095;27;20519;-65
2023/10/12 03:13:42;;;;;;;12.20;6.20;;;;;;;18.28;65.81;101163.13;5148028;27;20046;-64
2023/10/12 03:16:20;;;;;;;12.48;5.78;;;;;;;18.29;65.84;101167.50;5157292;27;20043;-65
2023/10/12 03:19:00;;;;;;;10.02;6.07;;;;;;;18.27;65.72;101156.88;5148468;27;20110;-65
2023/10/12 03:21:33;;;;;;;7.60;4.82;;;;;;;18.26;65.77;101149.00;5153286;27;20078;-65
2023/10/12 03:24:03;;;;;;;9.23;5.15;;;;;;;18.24;65.63;101162.84;5152043;27;20139;-65
2023/10/12 03:26:33;;;;;;;8.70;5.20;;;;;;;18.26;65.68;101157.16;5152834;27;20092;-64
2023/10/12 03:29:18;;;;;;;10.73;6.30;;;;;;;18.23;65.89;101134.00;5144155;27;20050;-64
2023/10/12 03:31:57;;;;;;;16.33;5.90;;;;;;;18.24;65.95;101138.38;5146174;27;20518;-65
2023/10/12 03:34:36;;;;;;;9.90;5.45;;;;;;;18.24;65.94;101146.53;5152578;27;20111;-65
2023/10/12 03:37:13;;;;;;;9.25;5.45;;;;;;;18.22;65.84;101132.38;5146288;27;20055;-64
2023/10/12 03:39:58;;;;;;;9.60;5.63;;;;;;;18.22;65.96;101132.38;5151280;27;20070;-64
2023/10/12 03:42:42;;;;;;;8.40;5.93;;;;;;;18.23;65.92;101133.19;5150760;27;20038;-64
2023/10/12 03:45:24;;;;;;;9.68;5.35;;;;;;;18.21;66.05;101131.56;5149691;27;20051;-64
2023/10/12 03:48:03;;;;;;;13.75;6.13;;;;;;;18.20;65.99;101145.41;5148131;27;20039;-64
2023/10/12 03:50:50;;;;;;;9.18;5.68;;;;;;;18.19;66.13;101151.94;5146019;27;20387;-64
2023/10/12 03:53:26;;;;;;;9.00;5.43;;;;;;;18.18;66.23;101153.84;5151665;27;20072;-64
2023/10/12 03:56:01;;;;;;;12.65;6.05;;;;;;;18.18;66.33;101161.19;5148880;27;20060;-63
2023/10/12 03:58:29;;;;;;;10.45;5.57;;;;;;;18.16;66.26;101158.72;5151211;27;20042;-66
2023/10/12 04:01:10;;;;;;;8.82;5.35;;;;;;;18.15;66.26;101157.09;5153862;27;20046;-64
2023/10/12 04:03:40;;;;;;;10.70;5.90;;;;;;;18.14;66.16;101151.91;5146436;27;20479;-64
2023/10/12 04:06:15;;;;;;;9.38;5.43;;;;;;;18.13;66.36;101161.16;5149933;27;20055;-64
2023/10/12 04:08:51;;;;;;;10.85;6.18;;;;;;;18.13;66.53;101167.44;5144253;27;20056;-64
2023/10/12 04:11:48;;;;;;;10.85;6.15;;;;;;;18.11;66.55;101175.03;5155383;27;20103;-64
2023/10/12 04:14:22;;;;;;;10.57;6.13;;;;;;;18.10;66.61;101176.13;5146656;27;20047;-64
2023/10/12 04:17:07;;;;;;;12.40;6.15;;;;;;;18.10;66.80;101183.47;5152382;27;20073;-65
2023/10/12 04:19:34;;;;;;;13.10;6.00;;;;;;;18.09;66.88;101184.53;5157669;27;20039;-66
2023/10/12 04:22:24;;;;;;;12.20;6.05;;;;;;;18.08;66.52;101186.44;5159585;27;20043;-64
2023/10/12 04:24:54;;;;;;;10.40;5.75;;;;;;;18.08;66.46;101185.63;5146915;27;20110;-65
2023/10/12 04:27:38;;;;;;;7.60;5.25;;;;;;;18.06;66.48;101182.34;5149527;27;20051;-65
2023/10/12 04:30:32;;;;;;;9.05;5.38;;;;;;;18.05;66.73;101184.25;5149311;27;20047;-64
2023/10/12 04:33:13;;;;;;;10.20;6.60;;;;;;;18.04;66.73;101185.31;5154535;27;20070;-64
2023/10/12 04:36:01;;;;;;;11.35;5.88;;;;;;;18.04;66.57;101187.22;5153242;27;20062;-64
2023/10/12 04:38:46;;;;;;;11.27;5.45;;;;;;;18.03;66.38;101183.69;5144608;27;20040;-65
2023/10/12 04:44:17;;;;;;;8.77;4.57;;;;;;;18.01;66.81;101177.69;5135845;27;20047;-64
2023/10/12 04:46:48;;;;;;;9.40;5.40;;;;;;;18.01;66.65;101176.88;5147299;27;20064;-66
2023/10/12 04:52:16;;;;;;;11.60;5.78;;;;;;;18.00;66.70;101183.41;5149501;27;20055;-65
2023/10/12 04:55:07;;;;;;;7.90;5.07;;;;;;;18.01;66.81;101185.03;5162217;27;20043;-65
2023/10/12 04:57:38;;;;;;;10.10;5.55;;;;;;;18.00;66.72;101194.28;5151035;27;20043;-64
2023/10/12 05:00:23;;;;;;;12.85;6.07;;;;;;;18.01;66.65;101201.34;5154126;27;20396;-65
2023/10/12 05:02:58;;;;;;;8.60;5.70;;;;;;;17.97;66.93;101186.63;5154147;27;20055;-64
2023/10/12 05:08:27;;;;;;;7.78;5.00;;;;;;;17.97;66.78;101200.25;5081169;28;20083;-67
2023/10/12 05:10:55;;;;;;;8.68;5.22;;;;;;;17.98;66.74;101199.16;5078025;28;20083;-65
2023/10/12 05:13:22;;;;;;;15.25;4.97;;;;;;;17.98;67.01;101212.75;5082173;28;20068;-67
2023/10/12 05:16:04;;;;;;;8.52;6.15;;;;;;;17.99;66.97;101222.56;5075973;28;20044;-66
2023/10/12 05:18:33;;;;;;;8.40;5.15;;;;;;;17.97;67.03;101225.53;5080766;28;20083;-66
2023/10/12 05:21:05;;;;;;;11.00;6.10;;;;;;;17.97;67.06;101227.44;4372712;28;10001397;-66
2023/10/12 05:23:33;;;;;;;9.70;5.80;;;;;;;17.97;66.92;101224.72;5056955;28;20521;-64
2023/10/12 05:26:09;;;;;;;10.13;5.65;;;;;;;17.96;66.85;101218.47;5055632;28;20081;-67
2023/10/12 05:28:47;;;;;;;8.38;5.43;;;;;;;17.95;67.01;101230.41;5059584;28;20136;-67
2023/10/12 05:31:20;;;;;;;10.30;6.40;;;;;;;17.96;66.88;101228.50;5053272;28;20080;-68
2023/10/12 05:36:48;;;;;;;9.77;5.45;;;;;;;17.94;67.13;101230.69;5052912;28;20072;-67
2023/10/12 05:39:16;;;;;;;8.93;5.18;;;;;;;17.94;67.06;101219.81;5056580;28;20127;-67
2023/10/12 05:41:46;;;;;;;10.73;5.47;;;;;;;17.92;66.68;101217.34;5066017;27;20057;-66
2023/10/12 05:44:16;;;;;;;8.93;5.15;;;;;;;17.93;67.02;101218.16;5137585;27;20051;-65
2023/10/12 05:46:50;;;;;;;11.18;6.03;;;;;;;17.88;66.86;101216.22;5138614;27;20051;-68
2023/10/12 05:49:23;;;;;;;8.15;4.82;;;;;;;17.92;66.93;101228.22;5135991;27;20062;-67
2023/10/12 05:51:53;;;;;;;10.20;5.47;;;;;;;17.92;67.18;101230.94;5137279;27;20054;-64
2023/10/12 05:54:23;;;;;;;12.40;6.13;;;;;;;17.89;68.03;101234.19;5141365;27;20055;-67
2023/10/12 05:56:51;;;;;;;8.57;5.18;;;;;;;17.91;67.88;101247.50;5138839;27;20062;-67
2023/10/12 05:59:20;;;;;;;11.10;5.55;;;;;;;17.89;67.74;101250.50;5142255;27;20359;-68
2023/10/12 06:01:48;;;;;;;9.00;5.80;;;;;;;17.88;67.93;101241.53;5142658;27;20038;-67
2023/10/12 06:04:19;;;;;;;10.18;4.97;;;;;;;17.87;67.84;101250.75;5144396;27;20059;-65
2023/10/12 06:06:51;;;;;;;12.57;6.03;;;;;;;17.87;67.82;101255.38;5143721;27;20107;-64
2023/10/12 06:09:24;;;;;;;7.20;5.22;;;;;;;17.87;67.55;101258.91;5143072;27;20053;-63
2023/10/12 06:11:55;;;;;;;11.68;5.30;;;;;;;17.83;67.48;101249.63;5157078;27;20450;-64
2023/10/12 06:14:23;;;;;;;11.07;5.80;;;;;;;17.86;67.27;101249.13;5153272;27;20043;-64
2023/10/12 06:16:55;;;;;;;9.10;5.28;;;;;;;17.86;67.46;101260.00;5156956;27;20051;-64
2023/10/12 06:19:26;;;;;;;8.65;5.40;;;;;;;17.85;67.50;101252.91;5163679;27;20047;-64
2023/10/12 06:21:58;;;;;;;9.07;5.03;;;;;;;17.84;67.47;101259.44;5152858;27;20055;-64
2023/10/12 06:24:34;;;;;;;10.98;5.25;;;;;;;17.85;67.65;101268.41;5147048;27;20054;-64
2023/10/12 06:27:22;;;;;;;11.48;6.20;;;;;;;17.83;67.38;101271.38;5145257;27;20055;-63
2023/10/12 06:29:52;;;;;;;13.30;5.57;;;;;;;17.82;68.09;101266.22;5149024;27;20504;-64
2023/10/12 06:32:25;;;;;;;11.48;6.07;;;;;;;17.81;68.08;101265.38;5163024;27;20046;-64
2023/10/12 06:35:04;;;;;;;13.27;5.07;;;;;;;17.81;67.94;101267.28;5148536;27;20055;-64
2023/10/12 06:40:37;;;;;;;12.38;5.68;;;;;;;17.77;67.95;101258.84;5139697;27;20096;-64
2023/10/12 06:45:51;;;;;;;10.40;4.78;;;;;;;17.79;67.76;101273.00;5105228;28;20044;-64
2023/10/12 06:48:43;;;;;;;11.55;4.97;;;;;;;17.79;67.72;101273.00;5119759;28;20118;-64
2023/10/12 06:51:13;;;;;;;9.50;5.35;;;;;;;17.79;67.64;101269.44;5105113;28;20083;-64
2023/10/12 06:53:44;;;;;;;9.45;5.13;;;;;;;17.79;67.83;101285.75;5093286;28;20425;-64
2023/10/12 06:56:26;;;;;;;15.00;6.40;;;;;;;17.79;68.04;101288.47;5109284;28;20111;-64
2023/10/12 06:59:21;;;;;;;7.35;4.78;;;;;;;17.79;67.86;101285.75;5113454;28;20570;-64
2023/10/12 07:01:56;;;;;;;7.28;4.80;;;;;;;17.79;67.55;101283.84;5093685;28;20125;-64
2023/10/12 07:04:27;;;;;;;12.90;4.80;;;;;;;17.79;67.58;101289.31;5096545;28;20429;-64
2023/10/12 07:07:00;;;;;;;8.18;4.53;;;;;;;17.78;67.21;101301.25;5104169;28;20089;-64
2023/10/12 07:09:38;;;;;;;8.00;4.90;;;;;;;17.80;67.72;101306.44;5104131;28;20044;-64
2023/10/12 07:12:11;;;;;;;9.43;4.55;;;;;;;17.80;67.55;101298.28;5099522;28;20040;-64
2023/10/12 07:14:46;;;;;;;9.70;5.25;;;;;;;17.77;67.41;101293.34;5102403;28;20052;-64
2023/10/12 07:17:14;;;;;;;9.98;5.38;;;;;;;17.78;67.39;101303.97;5100297;28;20062;-64
2023/10/12 07:19:46;;;;;;;14.48;5.20;;;;;;;17.78;67.41;101301.25;5099134;28;20138;-65
2023/10/12 07:22:16;;;;;;;8.77;4.82;;;;;;;17.80;67.44;101306.44;5114180;27;20188;-63
2023/10/12 07:24:44;;;;;;;9.07;5.05;;;;;;;17.79;67.41;101312.94;5139104;27;20299;-63
2023/10/12 07:27:18;;;;;;;8.65;5.15;;;;;;;17.79;67.49;101319.22;5155431;27;20043;-63
2023/10/12 07:30:00;;;;;;;8.10;4.75;;;;;;;17.79;67.25;101315.66;5146239;27;20477;-64
2023/10/12 07:32:38;;;;;;;7.80;4.72;;;;;;;17.79;67.29;101310.22;5146510;27;20531;-64
2023/10/12 07:35:18;;;;;;;15.20;6.13;;;;;;;17.78;67.41;101317.56;5141400;27;20046;-63
2023/10/12 07:37:48;;;;;;;8.68;4.90;;;;;;;17.78;67.52;101324.91;5151609;27;20047;-63
2023/10/12 07:40:19;;;;;;;8.38;5.40;;;;;;;17.78;67.39;101328.44;5161563;27;20050;-63
2023/10/12 07:42:48;;;;;;;12.27;5.13;;;;;;;17.78;67.19;101328.44;5155307;27;20047;-63
2023/10/12 07:45:17;;;;;;;11.52;5.20;;;;;;;17.78;67.12;101328.44;5158226;27;20098;-64
2023/10/12 07:47:58;;;;;;;9.70;5.10;;;;;;;17.78;67.18;101327.63;5140416;27;20064;-63
2023/10/12 07:50:30;;;;;;;11.90;5.07;;;;;;;17.79;67.26;101323.81;5157355;27;20061;-65
2023/10/12 07:53:07;;;;;;;6.40;4.40;;;;;;;17.78;67.40;101316.75;5136638;27;20043;-63
2023/10/12 07:55:41;;;;;;;10.40;4.65;;;;;;;17.77;67.28;101323.25;5155453;27;20047;-63
2023/10/12 07:58:12;;;;;;;9.75;5.00;;;;;;;17.75;67.32;101320.81;5161058;27;20061;-64
2023/10/12 08:00:51;;;;;;;6.30;4.50;;;;;;;17.75;67.42;101326.25;5143610;27;20047;-63
2023/10/12 08:03:19;;;;;;;8.40;4.65;;;;;;;17.75;67.21;101325.41;5155493;27;20074;-64
2023/10/12 08:05:58;;;;;;;9.45;4.70;;;;;;;17.74;67.38;101332.75;5161295;27;20074;-63
2023/10/12 08:08:37;;;;;;;13.85;5.35;;;;;;;17.73;67.38;101322.97;5150312;27;20111;-64
2023/10/12 08:11:27;;;;;;;6.85;4.60;;;;;;;17.74;67.47;101318.34;5142470;27;20035;-64
2023/10/12 08:14:09;;;;;;;9.23;4.60;;;;;;;17.73;67.41;101316.69;5150066;27;20468;-64
2023/10/12 08:16:40;;;;;;;8.77;5.13;;;;;;;17.72;67.45;101317.78;5143039;27;20047;-63
2023/10/12 08:19:28;;;;;;;9.43;4.78;;;;;;;17.71;67.43;101319.69;5161658;27;20088;-63
2023/10/12 08:22:00;;;;;;;9.50;6.10;;;;;;;17.71;67.43;101316.97;5152251;27;20046;-64
2023/10/12 08:24:30;;;;;;;8.00;5.00;;;;;;;17.71;67.37;101313.41;5152712;27;20047;-63
2023/10/12 08:27:00;;;;;;;7.78;4.82;;;;;;;17.70;67.56;101315.31;5145643;27;20073;-63
2023/10/12 08:32:27;;;;;;;7.35;5.00;;;;;;;17.71;67.27;101313.41;5151266;27;20039;-63
2023/10/12 08:35:10;;;;;;;8.38;5.03;;;;;;;17.70;67.46;101319.94;5148647;27;20047;-63
2023/10/12 08:38:09;;;;;;;6.03;4.38;;;;;;;17.70;67.31;101318.03;5153109;27;20108;-63
2023/10/12 08:40:30;;;;;;;8.75;4.55;;;;;;;17.68;67.52;101317.47;5139159;27;20043;-63
2023/10/12 08:43:06;;;;;;;9.82;4.32;;;;;;;17.70;67.57;101309.88;5157019;27;20053;-63
2023/10/12 08:45:37;;;;;;;;;;;;;;;17.71;67.37;101318.84;5160277;27;20046;-63
2023/10/12 08:48:09;;;;;;;8.95;4.63;;;;;;;17.71;67.39;101314.25;5144833;27;19920;-64
2023/10/12 08:50:49;;;;;;;9.18;5.00;;;;;;;17.72;67.53;101331.38;5150008;27;20047;-64
2023/10/12 08:53:22;;;;;;;9.65;4.72;;;;;;;17.73;67.50;101338.44;5148586;27;20063;-64
2023/10/12 08:55:53;;;;;;;7.75;4.93;;;;;;;17.69;67.32;101329.16;5154719;27;20057;-63
2023/10/12 08:58:38;;;;;;;8.65;5.00;;;;;;;17.73;67.48;101344.72;5156139;27;20068;-64
2023/10/12 09:01:10;;;;;;;9.27;5.40;;;;;;;17.73;67.41;101344.72;5147657;27;20046;-63
2023/10/12 09:03:44;;;;;;;11.55;5.50;;;;;;;17.75;67.34;101336.28;5156228;27;20418;-63
2023/10/12 09:06:53;;;;;;;7.00;4.50;;;;;;;17.75;67.11;101325.41;5144655;27;20088;-63
2023/10/12 09:12:00;;;;;;;7.53;4.63;;;;;;;17.77;67.37;101331.41;5155490;27;20051;-63
2023/10/12 09:14:27;;;;;;;7.05;4.65;;;;;;;17.77;67.21;101336.84;5151491;27;20046;-63
2023/10/12 09:16:57;;;;;;;9.48;4.82;;;;;;;17.77;67.28;101334.13;5150704;27;20043;-63
2023/10/12 09:19:29;;;;;;;8.18;4.88;;;;;;;17.76;67.12;101337.94;5154643;27;20046;-65
2023/10/12 09:22:01;;;;;;;8.60;4.68;;;;;;;17.77;67.34;101340.41;5158301;27;20062;-65
2023/10/12 09:24:35;;;;;;;8.13;4.80;;;;;;;17.78;67.49;101339.31;5146050;27;20093;-65
2023/10/12 09:27:11;;;;;;;10.38;5.40;;;;;;;17.79;67.38;101345.56;5151418;27;20096;-65
2023/10/12 09:29:57;;;;;;;6.68;4.28;;;;;;;17.78;67.54;101339.31;5144318;27;20067;-63
2023/10/12 09:32:28;;;;;;;12.40;4.40;;;;;;;17.79;67.42;101342.84;5158355;27;20421;-63
2023/10/12 09:35:11;;;;;;;10.02;5.20;;;;;;;17.79;67.61;101340.13;5143001;27;20070;-63
2023/10/12 09:37:45;;;;;;;7.05;4.72;;;;;;;17.79;67.64;101342.84;5155966;27;20051;-63
2023/10/12 09:40:26;;;;;;;7.80;4.72;;;;;;;17.78;67.67;101333.88;5146120;27;20047;-63
2023/10/12 09:42:59;;;;;;;10.25;5.95;;;;;;;17.79;67.86;101342.84;5156756;27;20047;-63
2023/10/12 09:45:41;;;;;;;9.55;4.47;;;;;;;17.79;67.74;101331.97;5160870;27;20047;-64
2023/10/12 09:48:18;;;;;;;10.60;4.78;;;;;;;17.80;67.68;101333.63;5142586;27;20048;-64
2023/10/12 09:50:51;;;;;;;10.38;5.05;;;;;;;17.79;67.78;101330.09;5146145;27;20050;-64
2023/10/12 09:53:24;;;;;;;8.23;4.97;;;;;;;17.79;67.75;101332.81;5145690;27;20065;-64
2023/10/12 09:56:15;;;;;;;7.97;4.50;;;;;;;17.80;67.75;101328.19;5150003;27;20129;-64
2023/10/12 09:58:51;;;;;;;11.15;4.70;;;;;;;17.80;67.59;101326.28;5156777;27;20405;-64
2023/10/12 10:01:49;;;;;;;9.77;4.60;;;;;;;17.80;67.62;101326.28;5146556;27;20095;-64
2023/10/12 10:07:14;;;;;;;9.73;5.22;;;;;;;17.80;67.74;101326.28;5155506;27;20055;-64
2023/10/12 10:09:46;;;;;;;6.53;4.60;;;;;;;17.81;67.53;101330.66;5149910;27;20046;-64
2023/10/12 10:12:16;;;;;;;7.25;4.80;;;;;;;17.81;67.73;101324.38;5154642;27;20058;-64
2023/10/12 10:14:45;;;;;;;8.68;5.15;;;;;;;17.82;67.64;101323.31;5148269;27;20516;-64
2023/10/12 10:17:15;;;;;;;9.00;5.07;;;;;;;17.81;67.66;101313.50;5151808;27;20051;-64
2023/10/12 10:19:52;;;;;;;8.93;5.28;;;;;;;17.80;67.82;101311.88;5159491;27;20058;-64
2023/10/12 10:22:22;;;;;;;9.73;4.90;;;;;;;17.81;67.67;101318.94;5147495;27;20081;-64
2023/10/12 10:24:55;;;;;;;6.03;4.55;;;;;;;17.81;67.75;101322.50;5149400;27;20134;-64
2023/10/12 10:27:34;;;;;;;9.18;5.18;;;;;;;17.81;67.83;101310.78;5160013;27;20053;-64
2023/10/12 10:30:25;;;;;;;7.32;4.03;;;;;;;17.81;67.80;101297.19;5144619;27;20042;-64
2023/10/12 10:33:12;;;;;;;8.02;4.78;;;;;;;17.81;67.35;101313.50;5157673;27;20045;-64
2023/10/12 10:36:10;;;;;;;7.78;3.83;;;;;;;17.81;67.66;101316.22;5149839;27;20063;-64
2023/10/12 10:38:49;;;;;;;8.50;4.40;;;;;;;17.77;67.68;101305.06;5143858;27;20050;-64
2023/10/12 10:41:22;;;;;;;8.55;4.90;;;;;;;17.81;67.84;101310.78;5156145;27;20055;-66
2023/10/12 10:43:52;;;;;;;8.95;4.55;;;;;;;17.80;67.86;101309.16;5158338;27;20472;-64
2023/10/12 10:46:26;;;;;;;8.40;4.82;;;;;;;17.81;67.78;101299.91;5160795;27;20050;-64
2023/10/12 10:48:56;;;;;;;10.05;4.47;;;;;;;17.81;67.54;101287.16;5148908;27;20327;-64
2023/10/12 10:51:48;;;;;;;8.75;5.25;;;;;;;17.81;68.00;101287.16;5152856;27;20046;-64
2023/10/12 10:54:19;;;;;;;7.28;4.57;;;;;;;17.81;67.97;101278.16;5142861;27;20058;-64
2023/10/12 10:56:49;;;;;;;7.60;4.72;;;;;;;17.82;67.99;101282.53;5162236;27;20106;-64
2023/10/12 10:59:18;;;;;;;9.85;5.25;;;;;;;17.83;67.97;101298.59;5157871;27;20115;-64
2023/10/12 11:01:49;;;;;;;7.93;4.57;;;;;;;17.83;68.29;101297.75;5153803;27;20054;-64
2023/10/12 11:04:41;;;;;;;8.45;4.63;;;;;;;17.83;68.03;101306.72;5157523;27;20100;-64
2023/10/12 11:07:15;;;;;;;9.10;4.45;;;;;;;17.84;67.98;101302.13;5153368;27;20043;-64
2023/10/12 11:10:05;;;;;;;8.43;4.55;;;;;;;17.80;67.86;101292.84;5155634;27;20043;-64
2023/10/12 11:12:36;;;;;;;7.95;4.28;;;;;;;17.85;68.94;101295.59;5137331;27;20051;-65
2023/10/12 11:15:08;;;;;;;14.95;5.10;;;;;;;17.85;68.74;101285.53;5150855;27;20043;-64
2023/10/12 11:17:43;;;;;;;6.40;4.15;;;;;;;17.86;68.74;101280.94;5158042;27;20047;-64
2023/10/12 11:20:43;;;;;;;8.32;4.40;;;;;;;17.87;68.78;101286.09;5152757;27;20065;-64
2023/10/12 11:23:15;;;;;;;7.55;4.40;;;;;;;17.88;68.28;101279.59;5155859;27;20044;-64
2023/10/12 11:25:43;;;;;;;10.23;4.38;;;;;;;17.89;68.65;101288.56;5147790;27;20051;-64
2023/10/12 11:28:22;;;;;;;8.93;4.20;;;;;;;17.88;68.53;101287.75;5141057;27;20043;-64
2023/10/12 11:30:51;;;;;;;10.05;4.85;;;;;;;17.90;68.42;101290.22;5143307;27;20047;-64
2023/10/12 11:33:28;;;;;;;10.43;5.13;;;;;;;17.91;68.35;101285.59;5161074;27;20398;-64
2023/10/12 11:36:00;;;;;;;7.00;3.93;;;;;;;17.86;68.49;101281.75;5151417;27;20043;-64
2023/10/12 11:38:29;;;;;;;13.07;5.63;;;;;;;17.91;68.49;101280.97;5150103;27;20043;-63
2023/10/12 11:41:12;;;;;;;5.45;4.00;;;;;;;17.92;68.62;101290.75;5153355;27;20095;-64
2023/10/12 11:43:52;;;;;;;6.75;4.22;;;;;;;17.93;68.44;101297.03;5149375;27;20123;-64
2023/10/12 11:46:21;;;;;;;8.93;4.68;;;;;;;17.93;68.44;101291.59;5152711;27;20060;-64
2023/10/12 11:49:05;;;;;;;7.20;4.50;;;;;;;17.92;68.61;101281.78;5148059;27;20051;-64
2023/10/12 11:51:40;;;;;;;6.30;4.00;;;;;;;17.91;68.49;101280.97;4790636;27;9999880;-64
2023/10/12 11:54:19;;;;;;;6.93;4.03;;;;;;;17.91;68.66;101272.81;5154304;27;20062;-64
2023/10/12 11:56:50;;;;;;;10.18;5.28;;;;;;;17.92;68.70;101282.59;5150215;27;20137;-64
2023/10/12 11:59:26;;;;;;;6.70;4.10;;;;;;;17.92;68.47;101265.47;5155341;27;20103;-64
2023/10/12 12:01:57;;;;;;;6.05;4.13;;;;;;;17.93;68.40;101275.28;5144806;27;20413;-64
2023/10/12 12:04:31;;;;;;;7.38;4.18;;;;;;;17.93;68.56;101278.00;5140966;27;20487;-64
2023/10/12 12:07:02;;;;;;;12.50;4.15;;;;;;;17.93;68.62;101284.25;5142132;27;20536;-64
2023/10/12 12:09:32;;;;;;;6.50;3.95;;;;;;;17.93;68.47;101281.53;5154502;27;20054;-64
2023/10/12 12:12:00;;;;;;;7.20;4.60;;;;;;;17.94;68.70;101263.31;5137829;27;20043;-64
2023/10/12 12:14:28;;;;;;;8.05;4.13;;;;;;;17.94;68.77;101269.56;5146483;27;20050;-64
2023/10/12 12:16:57;;;;;;;9.80;4.55;;;;;;;17.94;68.44;101271.47;5141050;27;20050;-64
2023/10/12 12:19:25;;;;;;;7.60;3.85;;;;;;;17.94;68.75;101274.19;5149057;27;20047;-64
2023/10/12 12:21:53;;;;;;;7.30;4.13;;;;;;;17.93;68.51;101267.09;5143141;27;20131;-64
2023/10/12 12:24:27;;;;;;;8.10;4.13;;;;;;;17.93;68.51;101265.22;5142180;27;20051;-64